Time;durP1;ratioP1;P1;durP2;ratioP2;P2;SDS_P1;SDS_P2;PMS_P1;PMS_P2;Temp;Humidity;BMP_temperature;BMP_pressure;BME280_temperature;BME280_humidity;BME280_pressure;Samples;Min_cycle;Max_cycle;Signal;HPM_P1;HPM_P2
2023/10/21 00:01:48;;;;;;;7.65;6.93;;;23.20;97.50;;;;;;6226769;28;89122;-67
2023/10/21 00:04:50;;;;;;;7.13;6.43;;;23.10;97.40;;;;;;6211137;28;89942;-68
2023/10/21 00:07:54;;;;;;;7.40;6.70;;;23.10;97.30;;;;;;6208821;28;89067;-68
2023/10/21 00:11:03;;;;;;;8.07;7.28;;;23.10;97.20;;;;;;6208848;28;89105;-68
2023/10/21 00:14:06;;;;;;;8.07;7.28;;;23.20;97.30;;;;;;6230716;28;89304;-68
2023/10/21 00:17:08;;;;;;;7.70;6.90;;;23.10;97.40;;;;;;6215314;28;89187;-70
2023/10/21 00:20:14;;;;;;;7.93;7.13;;;23.10;97.40;;;;;;6216326;28;89050;-71
2023/10/21 00:23:17;;;;;;;8.05;7.28;;;23.10;97.40;;;;;;6227439;28;89165;-69
2023/10/21 00:26:19;;;;;;;7.60;6.80;;;23.10;97.40;;;;;;6206566;28;88592;-70
2023/10/21 00:29:21;;;;;;;7.75;7.00;;;23.10;97.30;;;;;;6215634;28;89220;-69
2023/10/21 00:32:23;;;;;;;7.82;7.00;;;23.10;97.40;;;;;;6223607;28;89048;-70
2023/10/21 00:35:26;;;;;;;8.55;7.28;;;23.10;97.40;;;;;;6214995;28;90269;-70
2023/10/21 00:38:29;;;;;;;7.57;6.88;;;23.10;97.40;;;;;;6218438;28;89190;-70
2023/10/21 00:41:31;;;;;;;7.65;6.95;;;23.10;97.30;;;;;;6222226;28;89123;-70
2023/10/21 00:44:33;;;;;;;7.95;7.15;;;23.10;97.30;;;;;;6217720;28;88974;-70
2023/10/21 00:47:35;;;;;;;7.65;6.85;;;23.10;97.40;;;;;;6220060;28;88966;-69
2023/10/21 00:50:37;;;;;;;7.22;6.55;;;23.00;97.30;;;;;;6223637;28;88739;-70
2023/10/21 00:53:41;;;;;;;8.07;7.28;;;23.10;97.30;;;;;;6226823;28;89090;-70
2023/10/21 00:56:43;;;;;;;8.00;7.18;;;23.10;97.40;;;;;;6208702;28;88289;-70
2023/10/21 00:59:45;;;;;;;8.10;7.07;;;23.10;97.50;;;;;;6216292;28;89010;-69
2023/10/21 01:02:47;;;;;;;7.82;7.03;;;23.10;97.60;;;;;;6224437;28;89095;-69
2023/10/21 01:05:50;;;;;;;11.57;8.07;;;23.10;97.60;;;;;;6192070;28;89964;-69
2023/10/21 01:08:54;;;;;;;8.27;7.22;;;23.10;97.70;;;;;;6202709;28;89089;-70
2023/10/21 01:11:55;;;;;;;8.73;7.55;;;23.10;97.80;;;;;;6219708;28;89070;-70
2023/10/21 01:14:57;;;;;;;7.88;7.18;;;23.10;97.90;;;;;;6220913;28;89020;-70
2023/10/21 01:18:00;;;;;;;7.22;6.53;;;23.10;98.00;;;;;;6212818;28;88360;-69
2023/10/21 01:21:02;;;;;;;8.10;6.85;;;23.00;98.00;;;;;;6229474;28;90670;-71
2023/10/21 01:24:07;;;;;;;7.63;6.90;;;23.00;98.10;;;;;;6228901;28;89369;-71
2023/10/21 01:27:09;;;;;;;8.43;7.00;;;23.00;98.10;;;;;;6223571;28;87147;-68
2023/10/21 01:30:12;;;;;;;8.10;7.30;;;23.00;98.20;;;;;;6234024;28;87979;-68
2023/10/21 01:33:14;;;;;;;8.10;7.30;;;23.00;98.30;;;;;;6220978;28;89056;-68
2023/10/21 01:36:17;;;;;;;7.18;6.47;;;23.00;98.30;;;;;;6229661;28;90014;-68
2023/10/21 01:39:20;;;;;;;7.80;7.10;;;23.00;98.40;;;;;;6223607;28;89154;-68
2023/10/21 01:42:22;;;;;;;8.52;7.45;;;23.00;98.40;;;;;;6228699;28;89313;-68
2023/10/21 01:45:24;;;;;;;7.57;6.88;;;23.00;98.50;;;;;;6218655;28;89014;-68
2023/10/21 01:48:26;;;;;;;7.28;6.57;;;23.00;98.90;;;;;;6223659;28;89076;-68
2023/10/21 01:51:28;;;;;;;8.02;7.22;;;23.00;98.50;;;;;;6219614;28;89043;-68
2023/10/21 01:54:31;;;;;;;8.15;7.35;;;23.00;98.50;;;;;;6221345;28;88709;-68
2023/10/21 01:57:33;;;;;;;7.78;6.97;;;23.00;98.50;;;;;;6214011;28;88675;-68
2023/10/21 02:00:35;;;;;;;8.07;7.22;;;23.00;98.40;;;;;;6225064;28;88974;-68
2023/10/21 02:03:37;;;;;;;7.75;7.03;;;23.00;98.50;;;;;;6224718;28;89084;-68
2023/10/21 02:06:39;;;;;;;8.20;7.40;;;23.00;98.50;;;;;;6208572;28;88913;-69
2023/10/21 02:09:43;;;;;;;7.63;6.93;;;23.00;98.50;;;;;;6219569;28;89371;-68
2023/10/21 02:12:45;;;;;;;7.55;6.85;;;23.00;98.50;;;;;;6221435;28;89178;-69
2023/10/21 02:15:47;;;;;;;8.10;7.30;;;23.00;98.60;;;;;;6214307;28;87971;-68
2023/10/21 02:18:49;;;;;;;8.57;7.35;;;23.00;98.60;;;;;;6227117;28;89061;-68
2023/10/21 02:21:51;;;;;;;8.57;7.55;;;23.00;98.70;;;;;;6208708;28;89431;-68
2023/10/21 02:24:54;;;;;;;8.18;7.38;;;23.00;98.70;;;;;;6213613;28;89073;-68
2023/10/21 02:27:56;;;;;;;7.68;6.97;;;23.00;98.70;;;;;;6224707;28;88325;-69
2023/10/21 02:30:58;;;;;;;8.45;7.53;;;23.00;98.70;;;;;;6210172;28;89074;-68
2023/10/21 02:34:00;;;;;;;7.70;7.00;;;23.00;98.80;;;;;;6216858;28;88865;-69
2023/10/21 02:37:02;;;;;;;8.00;7.20;;;22.90;98.70;;;;;;6212403;28;89968;-68
2023/10/21 02:40:07;;;;;;;8.48;7.57;;;22.90;98.80;;;;;;6214680;28;89014;-69
2023/10/21 02:43:10;;;;;;;7.95;7.15;;;23.00;98.80;;;;;;6209243;28;89118;-69
2023/10/21 02:46:12;;;;;;;7.90;7.15;;;22.90;98.60;;;;;;6223095;28;89412;-68
2023/10/21 02:49:14;;;;;;;8.00;7.20;;;23.00;98.70;;;;;;6211908;28;89272;-68
2023/10/21 02:52:16;;;;;;;8.13;7.30;;;22.90;98.60;;;;;;6225947;28;89165;-68
2023/10/21 02:55:20;;;;;;;8.40;7.60;;;22.90;98.70;;;;;;6215967;28;89517;-68
2023/10/21 02:58:22;;;;;;;8.23;7.43;;;22.90;98.60;;;;;;6224601;28;88312;-68
2023/10/21 03:01:25;;;;;;;8.48;7.57;;;22.90;98.60;;;;;;6217775;28;87933;-68
2023/10/21 03:04:27;;;;;;;9.00;7.78;;;23.00;98.70;;;;;;6208039;28;87909;-68
2023/10/21 03:07:29;;;;;;;9.10;8.20;;;23.00;98.80;;;;;;6215436;28;90262;-68
2023/10/21 03:10:33;;;;;;;9.80;8.43;;;22.90;98.70;;;;;;6215381;28;89459;-68
2023/10/21 03:13:36;;;;;;;8.55;7.65;;;22.90;98.80;;;;;;6229020;28;89088;-68
2023/10/21 03:16:38;;;;;;;9.02;8.13;;;22.90;98.80;;;;;;6215133;28;90110;-68
2023/10/21 03:19:40;;;;;;;8.85;7.95;;;22.90;98.80;;;;;;6218268;28;89100;-68
2023/10/21 03:22:43;;;;;;;9.05;8.15;;;22.90;98.80;;;;;;6214290;28;89296;-68
2023/10/21 03:25:55;;;;;;;10.93;8.98;;;22.90;98.90;;;;;;6211280;28;88767;-68
2023/10/21 03:28:57;;;;;;;10.27;8.52;;;22.80;98.90;;;;;;6210636;28;88651;-68
2023/10/21 03:31:59;;;;;;;9.38;8.38;;;22.90;98.90;;;;;;6219999;28;89443;-68
2023/10/21 03:35:01;;;;;;;9.52;8.43;;;22.90;98.90;;;;;;6209950;28;89082;-68
2023/10/21 03:38:03;;;;;;;8.38;7.57;;;22.90;98.90;;;;;;6217165;28;90241;-67
2023/10/21 03:41:09;;;;;;;8.85;7.95;;;22.90;98.90;;;;;;6208170;28;89143;-67
2023/10/21 03:44:11;;;;;;;9.77;8.77;;;22.80;98.90;;;;;;6206934;28;89376;-68
2023/10/21 03:47:13;;;;;;;9.10;8.20;;;22.90;98.90;;;;;;6206508;28;89375;-68
2023/10/21 03:50:15;;;;;;;9.00;8.10;;;22.90;98.80;;;;;;6218959;28;89376;-68
2023/10/21 03:53:17;;;;;;;9.30;8.32;;;22.80;98.70;;;;;;6227704;28;89533;-68
2023/10/21 03:56:21;;;;;;;9.50;8.57;;;22.90;98.70;;;;;;6222386;28;89136;-68
2023/10/21 03:59:23;;;;;;;8.80;7.90;;;22.90;98.70;;;;;;6225900;28;88297;-68
2023/10/21 04:02:24;;;;;;;9.20;8.30;;;22.90;98.70;;;;;;6225228;28;89431;-67
2023/10/21 04:05:26;;;;;;;9.30;8.40;;;22.90;98.60;;;;;;6214444;28;88973;-68
2023/10/21 04:08:30;;;;;;;9.82;8.80;;;22.90;98.60;;;;;;6206256;28;89639;-68
2023/10/21 04:11:34;;;;;;;9.30;8.38;;;22.90;98.60;;;;;;6213959;28;89532;-68
2023/10/21 04:14:36;;;;;;;10.80;8.40;;;22.90;98.60;;;;;;6222684;28;89088;-68
2023/10/21 04:17:39;;;;;;;9.40;8.50;;;22.90;98.60;;;;;;6211585;28;87994;-68
2023/10/21 04:20:41;;;;;;;9.50;8.60;;;22.90;98.60;;;;;;6213629;28;89261;-69
2023/10/21 04:23:43;;;;;;;10.52;9.48;;;23.00;98.70;;;;;;6206507;28;89077;-67
2023/10/21 04:26:46;;;;;;;9.13;8.23;;;23.00;98.70;;;;;;6209399;28;89067;-68
2023/10/21 04:29:48;;;;;;;9.40;8.30;;;23.00;98.70;;;;;;6221386;28;87537;-68
2023/10/21 04:32:51;;;;;;;9.27;8.38;;;23.00;98.60;;;;;;6220031;28;88994;-68
2023/10/21 04:35:53;;;;;;;9.43;8.52;;;23.10;98.70;;;;;;6220313;28;88992;-68
2023/10/21 04:38:55;;;;;;;9.68;8.77;;;23.00;98.60;;;;;;6217893;28;90022;-68
2023/10/21 04:41:58;;;;;;;10.30;9.30;;;23.10;98.60;;;;;;6209402;28;88077;-67
2023/10/21 04:45:00;;;;;;;9.75;8.85;;;23.00;98.60;;;;;;6214523;28;88113;-67
2023/10/21 04:48:03;;;;;;;9.95;8.57;;;23.10;98.60;;;;;;6205865;28;88892;-68
2023/10/21 04:51:05;;;;;;;10.25;9.25;;;23.10;98.60;;;;;;6222985;28;89363;-67
2023/10/21 04:54:08;;;;;;;10.27;9.20;;;23.10;98.70;;;;;;6210769;28;89119;-67
2023/10/21 04:57:12;;;;;;;10.07;9.07;;;23.10;98.70;;;;;;6213538;28;88223;-67
2023/10/21 05:00:15;;;;;;;9.50;8.50;;;23.10;98.70;;;;;;6226724;28;88251;-67
2023/10/21 05:03:17;;;;;;;9.07;8.18;;;23.10;98.80;;;;;;6209462;28;88209;-68
2023/10/21 05:06:20;;;;;;;9.00;8.10;;;23.10;98.80;;;;;;6218463;28;89016;-67
2023/10/21 05:09:22;;;;;;;9.68;8.68;;;23.10;98.80;;;;;;6222108;28;90054;-67
2023/10/21 05:12:26;;;;;;;9.13;8.23;;;23.10;98.80;;;;;;6221275;28;89308;-68
2023/10/21 05:15:28;;;;;;;9.60;8.60;;;23.10;98.90;;;;;;6215578;28;89162;-67
2023/10/21 05:18:30;;;;;;;9.40;8.32;;;23.10;99.10;;;;;;6213975;28;89449;-68
2023/10/21 05:21:32;;;;;;;13.63;8.60;;;23.10;99.10;;;;;;6213102;28;89018;-68
2023/10/21 05:24:34;;;;;;;9.77;8.13;;;23.10;99.10;;;;;;6223362;28;89379;-67
2023/10/21 05:27:37;;;;;;;9.75;8.30;;;23.10;99.20;;;;;;6219636;28;89215;-67
2023/10/21 05:30:41;;;;;;;11.55;8.95;;;23.10;99.10;;;;;;6229873;28;87265;-66
2023/10/21 05:33:44;;;;;;;9.48;8.00;;;23.10;99.00;;;;;;6215429;28;89333;-68
2023/10/21 05:36:46;;;;;;;10.02;8.50;;;23.10;99.50;;;;;;6211933;28;90231;-67
2023/10/21 05:39:48;;;;;;;11.35;8.27;;;23.10;99.10;;;;;;6212798;28;90365;-67
2023/10/21 05:42:52;;;;;;;9.88;8.38;;;23.10;99.00;;;;;;6230731;28;89076;-67
2023/10/21 05:45:54;;;;;;;8.73;7.82;;;23.20;99.10;;;;;;6223988;28;89092;-67
2023/10/21 05:48:56;;;;;;;9.40;8.10;;;23.10;99.10;;;;;;6219728;28;89383;-70
2023/10/21 05:51:59;;;;;;;10.07;8.55;;;23.10;99.10;;;;;;6224019;28;89041;-70
2023/10/21 05:55:04;;;;;;;10.60;8.07;;;23.10;99.10;;;;;;6213290;28;89178;-69
2023/10/21 05:58:07;;;;;;;9.20;8.10;;;23.20;99.10;;;;;;6223719;28;89262;-70
2023/10/21 06:01:11;;;;;;;9.07;8.13;;;23.20;99.00;;;;;;6212466;28;88283;-70
2023/10/21 06:04:13;;;;;;;9.23;7.80;;;23.20;99.00;;;;;;6210907;28;88018;-70
2023/10/21 06:07:15;;;;;;;8.50;7.60;;;23.30;98.90;;;;;;6211032;28;88994;-70
2023/10/21 06:10:17;;;;;;;8.40;7.57;;;23.30;98.90;;;;;;6224891;28;89890;-70
2023/10/21 06:13:20;;;;;;;8.30;7.50;;;23.30;98.80;;;;;;6221765;28;89084;-70
2023/10/21 06:16:22;;;;;;;8.90;8.00;;;23.30;98.80;;;;;;6214731;28;89052;-67
2023/10/21 06:19:25;;;;;;;8.88;7.90;;;23.30;98.70;;;;;;6211692;28;89257;-68
2023/10/21 06:22:27;;;;;;;8.43;7.53;;;23.30;98.60;;;;;;6227421;28;88915;-68
2023/10/21 06:25:31;;;;;;;7.78;7.07;;;23.30;98.60;;;;;;6214684;28;87827;-68
2023/10/21 06:28:37;;;;;;;8.68;7.22;;;23.30;98.50;;;;;;6210784;28;89006;-67
2023/10/21 06:31:40;;;;;;;8.77;7.40;;;23.40;98.50;;;;;;6221121;28;87924;-67
2023/10/21 06:34:42;;;;;;;8.48;7.13;;;23.40;98.40;;;;;;6208541;28;89058;-67
2023/10/21 06:37:44;;;;;;;8.88;7.47;;;23.40;98.40;;;;;;6219400;28;89095;-67
2023/10/21 06:40:46;;;;;;;7.82;7.03;;;23.40;98.30;;;;;;6222618;28;89139;-67
2023/10/21 06:43:51;;;;;;;7.88;6.93;;;23.40;98.20;;;;;;6222515;28;89299;-67
2023/10/21 06:46:53;;;;;;;8.75;7.10;;;23.40;98.20;;;;;;6225691;28;89060;-68
2023/10/21 06:49:55;;;;;;;9.43;6.85;;;23.50;98.20;;;;;;6219520;28;89343;-67
2023/10/21 06:52:57;;;;;;;8.02;7.22;;;23.50;98.10;;;;;;6217600;28;89088;-67
2023/10/21 06:55:59;;;;;;;7.30;6.60;;;23.50;98.10;;;;;;6216589;28;87973;-67
2023/10/21 06:59:03;;;;;;;7.50;6.80;;;23.50;98.10;;;;;;6219750;28;89348;-67
2023/10/21 07:02:05;;;;;;;9.52;7.10;;;23.50;98.00;;;;;;6208560;28;88416;-67
2023/10/21 07:05:09;;;;;;;7.45;6.40;;;23.50;98.00;;;;;;6215339;28;89086;-68
2023/10/21 07:08:11;;;;;;;7.55;6.82;;;23.50;98.00;;;;;;6214844;28;89071;-67
2023/10/21 07:11:13;;;;;;;7.63;6.57;;;23.60;98.10;;;;;;6218394;28;88881;-66
2023/10/21 07:14:16;;;;;;;7.32;6.53;;;23.60;98.00;;;;;;6215653;28;89185;-67
2023/10/21 07:17:19;;;;;;;7.35;6.65;;;23.60;98.00;;;;;;6207115;28;87976;-67
2023/10/21 07:20:21;;;;;;;7.07;6.38;;;23.60;98.00;;;;;;6212495;28;88283;-70
2023/10/21 07:23:23;;;;;;;7.40;6.65;;;23.60;98.00;;;;;;6209917;28;89350;-70
2023/10/21 07:26:25;;;;;;;8.05;6.60;;;23.60;98.00;;;;;;6206051;28;89036;-67
2023/10/21 07:29:28;;;;;;;7.25;6.40;;;23.60;98.00;;;;;;6209706;28;87944;-67
2023/10/21 07:32:30;;;;;;;9.07;6.88;;;23.60;98.00;;;;;;6221491;28;88448;-67
2023/10/21 07:35:32;;;;;;;6.60;5.93;;;23.70;98.00;;;;;;6207861;28;88273;-67
2023/10/21 07:38:35;;;;;;;7.07;6.38;;;23.70;98.00;;;;;;6218027;28;88912;-67
2023/10/21 07:41:37;;;;;;;7.00;6.30;;;23.70;98.00;;;;;;6209558;28;90062;-68
2023/10/21 07:44:41;;;;;;;7.38;6.65;;;23.70;98.00;;;;;;6218183;28;88750;-67
2023/10/21 07:47:43;;;;;;;6.80;6.10;;;23.70;98.00;;;;;;6214425;28;89360;-68
2023/10/21 07:50:45;;;;;;;6.65;5.95;;;23.70;98.10;;;;;;6212289;28;89026;-67
2023/10/21 07:53:46;;;;;;;6.78;6.07;;;23.70;98.10;;;;;;6208891;28;89512;-67
2023/10/21 07:56:50;;;;;;;6.43;5.82;;;23.70;98.10;;;;;;6216279;28;87940;-70
2023/10/21 07:59:53;;;;;;;6.57;5.93;;;23.70;98.10;;;;;;6210859;28;88791;-68
2023/10/21 08:02:58;;;;;;;6.55;5.90;;;23.70;98.10;;;;;;6208905;28;88346;-68
2023/10/21 08:06:00;;;;;;;6.38;5.78;;;23.70;98.20;;;;;;6217052;28;89249;-68
2023/10/21 08:09:04;;;;;;;6.80;6.10;;;23.70;98.20;;;;;;6212309;28;89061;-68
2023/10/21 08:12:09;;;;;;;7.05;6.18;;;23.70;98.20;;;;;;6220944;28;89199;-68
2023/10/21 08:15:13;;;;;;;6.50;5.80;;;23.70;98.20;;;;;;6223114;28;89191;-68
2023/10/21 08:18:15;;;;;;;6.47;5.85;;;23.70;98.20;;;;;;6207258;28;89137;-68
2023/10/21 08:21:18;;;;;;;6.80;5.95;;;23.70;98.20;;;;;;6218632;28;89074;-69
2023/10/21 08:24:20;;;;;;;6.93;6.22;;;23.70;98.30;;;;;;6209909;28;89191;-68
2023/10/21 08:27:23;;;;;;;7.03;6.32;;;23.70;98.30;;;;;;6207717;28;88736;-68
2023/10/21 08:30:26;;;;;;;9.20;6.55;;;23.70;98.30;;;;;;6214933;28;87917;-68
2023/10/21 08:33:28;;;;;;;6.30;5.70;;;23.80;98.30;;;;;;6207865;28;88130;-68
2023/10/21 08:36:30;;;;;;;6.20;5.55;;;23.80;98.40;;;;;;6207735;28;89090;-68
2023/10/21 08:39:34;;;;;;;5.95;5.32;;;23.70;98.40;;;;;;6217827;28;89127;-67
2023/10/21 08:42:36;;;;;;;7.00;5.70;;;23.80;98.40;;;;;;6235155;28;89202;-67
2023/10/21 08:45:41;;;;;;;6.30;5.70;;;23.80;98.40;;;;;;6235709;28;89169;-68
2023/10/21 08:48:45;;;;;;;6.88;5.70;;;23.80;98.40;;;;;;6217642;28;89142;-68
2023/10/21 08:51:50;;;;;;;6.55;5.50;;;23.80;98.60;;;;;;6216292;28;89245;-67
2023/10/21 08:54:52;;;;;;;8.07;6.18;;;23.80;98.70;;;;;;6238005;28;89153;-67
2023/10/21 08:57:54;;;;;;;8.60;5.45;;;23.80;98.70;;;;;;6238047;28;89318;-67
2023/10/21 09:00:58;;;;;;;9.45;5.88;;;23.80;98.80;;;;;;6217191;28;89146;-67
2023/10/21 09:04:00;;;;;;;6.50;5.45;;;23.80;98.80;;;;;;6228209;28;88558;-67
2023/10/21 09:07:03;;;;;;;6.05;5.45;;;23.80;98.90;;;;;;6213695;28;89142;-67
2023/10/21 09:10:09;;;;;;;8.82;5.30;;;23.80;98.90;;;;;;6232571;28;89059;-68
2023/10/21 09:13:15;;;;;;;8.80;5.68;;;23.80;99.00;;;;;;6219951;28;89928;-67
2023/10/21 09:16:25;;;;;;;7.53;5.68;;;23.80;99.00;;;;;;6212709;28;89000;-68
2023/10/21 09:19:28;;;;;;;7.03;5.70;;;23.80;99.00;;;;;;6215669;28;87895;-68
2023/10/21 09:22:30;;;;;;;9.07;5.95;;;23.80;99.00;;;;;;6223384;28;89387;-68
2023/10/21 09:25:32;;;;;;;7.55;5.57;;;23.80;99.00;;;;;;6226810;28;89300;-67
2023/10/21 09:28:34;;;;;;;6.57;5.50;;;23.80;99.00;;;;;;6215219;28;89127;-68
2023/10/21 09:31:47;;;;;;;5.45;4.93;;;23.80;99.00;;;;;;6216899;28;89243;-67
2023/10/21 09:34:50;;;;;;;6.22;5.53;;;23.80;99.00;;;;;;6217416;28;88337;-68
2023/10/21 09:37:52;;;;;;;6.57;5.22;;;23.80;99.00;;;;;;6212886;28;89008;-68
2023/10/21 09:40:55;;;;;;;6.40;5.07;;;23.80;98.90;;;;;;6221416;28;89133;-68
2023/10/21 09:44:00;;;;;;;7.18;5.18;;;23.80;98.90;;;;;;6214289;28;90014;-68
2023/10/21 09:47:08;;;;;;;6.63;5.30;;;23.90;98.90;;;;;;6232606;28;89188;-68
2023/10/21 09:50:11;;;;;;;6.45;5.00;;;23.90;98.90;;;;;;6215313;28;88270;-68
2023/10/21 09:53:16;;;;;;;8.80;5.50;;;23.90;98.90;;;;;;6213435;28;89042;-68
2023/10/21 09:56:19;;;;;;;7.82;5.35;;;23.80;98.90;;;;;;6216699;28;89073;-68
2023/10/21 09:59:23;;;;;;;7.13;4.93;;;23.80;98.90;;;;;;6217060;28;89100;-67
2023/10/21 10:02:27;;;;;;;6.88;5.30;;;23.90;99.00;;;;;;6212341;28;89049;-68
2023/10/21 10:05:29;;;;;;;5.57;5.07;;;23.90;99.00;;;;;;6220107;28;87176;-68
2023/10/21 10:08:34;;;;;;;5.75;5.10;;;23.90;99.00;;;;;;6215498;28;89442;-67
2023/10/21 10:11:38;;;;;;;6.25;5.20;;;23.90;99.00;;;;;;6220549;28;89149;-68
2023/10/21 10:14:41;;;;;;;7.22;4.70;;;23.90;99.00;;;;;;6208147;28;88728;-68
2023/10/21 10:17:51;;;;;;;6.90;5.20;;;23.90;99.00;;;;;;6221519;28;89047;-67
2023/10/21 10:20:54;;;;;;;5.72;4.68;;;23.90;99.00;;;;;;6213128;28;88861;-68
2023/10/21 10:23:59;;;;;;;6.22;4.80;;;23.90;99.10;;;;;;6210785;28;89075;-67
2023/10/21 10:27:08;;;;;;;6.65;4.90;;;23.90;99.00;;;;;;6230275;28;88950;-68
2023/10/21 10:30:19;;;;;;;5.35;4.72;;;23.90;99.00;;;;;;6220389;28;88087;-67
2023/10/21 10:33:26;;;;;;;5.88;4.97;;;23.90;99.00;;;;;;6228979;28;89002;-68
2023/10/21 10:36:29;;;;;;;6.18;4.75;;;23.90;99.00;;;;;;6225284;28;87241;-67
2023/10/21 10:39:40;;;;;;;4.63;4.15;;;23.90;98.90;;;;;;6219880;28;89364;-67
2023/10/21 10:42:44;;;;;;;5.32;4.13;;;23.90;98.90;;;;;;6213336;28;89167;-68
2023/10/21 10:45:47;;;;;;;4.45;4.05;;;23.90;98.90;;;;;;6211312;28;90365;-68
2023/10/21 10:48:51;;;;;;;6.45;4.90;;;23.90;98.90;;;;;;6216577;28;89089;-68
2023/10/21 10:51:52;;;;;;;5.95;4.40;;;23.90;98.80;;;;;;6210927;28;87864;-68
2023/10/21 10:54:54;;;;;;;5.05;4.55;;;23.90;98.80;;;;;;6224702;28;89118;-68
2023/10/21 10:57:57;;;;;;;5.00;4.50;;;23.90;98.80;;;;;;6215555;28;89135;-68
2023/10/21 11:00:59;;;;;;;4.75;4.03;;;23.90;98.80;;;;;;6219632;28;89007;-67
2023/10/21 11:04:05;;;;;;;5.10;4.30;;;24.00;98.80;;;;;;6212928;28;89136;-68
2023/10/21 11:07:09;;;;;;;4.50;4.10;;;23.90;98.70;;;;;;6211424;28;88281;-69
2023/10/21 11:10:14;;;;;;;5.03;4.40;;;24.00;98.80;;;;;;6229339;28;89352;-69
2023/10/21 11:13:17;;;;;;;4.50;4.10;;;23.90;98.70;;;;;;6218995;28;89040;-68
2023/10/21 11:16:19;;;;;;;5.05;4.10;;;24.00;98.70;;;;;;6217650;28;89655;-68
2023/10/21 11:19:24;;;;;;;4.88;4.35;;;23.90;98.60;;;;;;6222139;28;89032;-69
2023/10/21 11:22:26;;;;;;;5.32;4.15;;;24.00;98.70;;;;;;6216794;28;89081;-69
2023/10/21 11:25:29;;;;;;;5.68;4.32;;;23.90;98.70;;;;;;6207277;28;89108;-69
2023/10/21 11:28:31;;;;;;;5.43;4.05;;;24.00;98.60;;;;;;6208354;28;89299;-69
2023/10/21 11:31:34;;;;;;;5.07;4.20;;;24.00;98.60;;;;;;6227235;28;89406;-68
2023/10/21 11:34:38;;;;;;;4.90;4.20;;;24.00;98.60;;;;;;6226408;28;89474;-69
2023/10/21 11:37:41;;;;;;;4.82;4.18;;;23.90;98.60;;;;;;6226805;28;88284;-68
2023/10/21 11:40:45;;;;;;;4.47;4.07;;;24.00;98.60;;;;;;6215419;28;89412;-66
2023/10/21 11:43:51;;;;;;;8.35;4.38;;;24.00;98.60;;;;;;6206768;28;89108;-70
2023/10/21 11:46:56;;;;;;;5.72;4.20;;;24.00;98.70;;;;;;6225383;28;88959;-70
2023/10/21 11:50:00;;;;;;;4.40;4.00;;;24.00;98.90;;;;;;6224103;28;89095;-70
2023/10/21 11:53:04;;;;;;;5.50;4.20;;;24.00;98.90;;;;;;6216662;28;89271;-69
2023/10/21 12:13:23;;;;;;;5.30;3.92;;;24.00;99.00;;;;;;6201686;28;87889;-69
2023/10/21 12:16:32;;;;;;;6.40;4.25;;;24.00;99.00;;;;;;6218390;28;88350;-69
2023/10/21 12:19:53;;;;;;;9.32;4.32;;;24.00;99.10;;;;;;6204655;28;89954;-68
2023/10/21 12:33:49;;;;;;;4.75;3.50;;;24.00;99.20;;;;;;6331278;27;82509;-69
2023/10/21 12:40:30;;;;;;;4.43;3.70;;;24.00;99.30;;;;;;6311515;27;81826;-69
2023/10/21 12:43:35;;;;;;;4.82;4.00;;;24.00;99.20;;;;;;6319877;27;82382;-69
2023/10/21 12:46:40;;;;;;;6.78;4.40;;;24.00;99.20;;;;;;6311266;27;81024;-69
2023/10/21 12:49:43;;;;;;;5.32;3.97;;;24.00;99.20;;;;;;6319256;27;82305;-70
2023/10/21 12:52:45;;;;;;;4.57;3.72;;;24.00;99.20;;;;;;6325748;27;82100;-69
2023/10/21 12:55:48;;;;;;;5.78;3.70;;;24.00;99.20;;;;;;6316295;27;82264;-70
2023/10/21 12:58:50;;;;;;;7.53;3.85;;;24.00;99.20;;;;;;6321714;27;82267;-69
2023/10/21 13:01:53;;;;;;;5.25;4.07;;;24.00;99.10;;;;;;6308813;27;82322;-69
2023/10/21 13:04:55;;;;;;;3.65;3.35;;;24.00;99.40;;;;;;6318726;27;82342;-69
2023/10/21 13:07:57;;;;;;;3.53;3.22;;;24.00;99.10;;;;;;6317479;27;82645;-69
2023/10/21 13:11:00;;;;;;;7.28;3.75;;;24.00;99.10;;;;;;6317405;27;82370;-69
2023/10/21 13:14:04;;;;;;;4.50;3.80;;;23.90;99.00;;;;;;6305907;27;82392;-69
2023/10/21 13:17:09;;;;;;;4.82;3.60;;;24.00;99.00;;;;;;6308000;27;82473;-69
2023/10/21 13:20:16;;;;;;;5.50;3.83;;;24.00;98.90;;;;;;6307839;27;83477;-70
2023/10/21 13:23:18;;;;;;;4.57;3.58;;;24.00;98.90;;;;;;6323563;27;82190;-70
2023/10/21 13:26:20;;;;;;;5.47;3.40;;;24.00;98.90;;;;;;6315979;27;82414;-70
2023/10/21 13:29:22;;;;;;;4.95;3.90;;;24.00;98.90;;;;;;6310121;27;82318;-69
2023/10/21 13:32:26;;;;;;;4.75;3.60;;;24.00;98.90;;;;;;6325852;27;82335;-69
2023/10/21 13:35:30;;;;;;;4.35;3.47;;;24.00;98.90;;;;;;6318001;27;82386;-70
2023/10/21 13:38:31;;;;;;;4.00;3.60;;;24.00;98.90;;;;;;6321189;27;81220;-69
2023/10/21 13:41:33;;;;;;;4.72;3.40;;;23.90;98.90;;;;;;6297738;27;82275;-69
2023/10/21 13:44:36;;;;;;;4.63;3.13;;;24.00;98.90;;;;;;6290970;27;82201;-69
2023/10/21 13:47:39;;;;;;;5.07;3.60;;;24.00;98.90;;;;;;6302143;27;82303;-70
2023/10/21 13:50:42;;;;;;;3.88;3.45;;;24.00;98.80;;;;;;6300068;27;82250;-70
2023/10/21 13:53:44;;;;;;;5.05;3.20;;;24.00;98.80;;;;;;6298515;27;82243;-70
2023/10/21 13:56:46;;;;;;;3.80;3.30;;;24.00;98.80;;;;;;6294257;27;80842;-70
2023/10/21 13:59:48;;;;;;;3.67;3.17;;;23.90;98.80;;;;;;6302367;27;82724;-70
2023/10/21 14:02:52;;;;;;;3.65;3.35;;;24.00;98.80;;;;;;6302586;27;82276;-70
2023/10/21 14:05:56;;;;;;;3.30;2.97;;;24.00;98.80;;;;;;6299834;27;82294;-70
2023/10/21 14:08:58;;;;;;;4.95;3.65;;;24.00;98.80;;;;;;6307114;27;82281;-70
2023/10/21 14:12:00;;;;;;;4.00;2.95;;;24.00;98.80;;;;;;6300435;27;82313;-70
2023/10/21 14:15:10;;;;;;;5.28;3.97;;;24.00;98.80;;;;;;6296574;27;82191;-70
2023/10/21 14:18:13;;;;;;;4.47;3.42;;;24.00;98.80;;;;;;6293755;27;82195;-67
2023/10/21 14:21:15;;;;;;;5.38;3.20;;;24.00;99.00;;;;;;6294511;27;82217;-71
2023/10/21 14:24:17;;;;;;;4.32;3.40;;;24.00;98.90;;;;;;6291883;27;82264;-71
2023/10/21 14:27:20;;;;;;;4.80;3.55;;;24.00;99.00;;;;;;6303192;27;82306;-72
2023/10/21 14:30:23;;;;;;;3.47;3.17;;;24.00;99.20;;;;;;6291170;27;82322;-71
2023/10/21 14:33:28;;;;;;;3.83;3.30;;;24.00;99.30;;;;;;6293659;27;82443;-72
2023/10/21 14:36:30;;;;;;;3.75;3.42;;;24.00;99.30;;;;;;6297387;27;81208;-72
2023/10/21 14:39:35;;;;;;;3.60;3.05;;;24.00;99.40;;;;;;6287305;27;82322;-71
2023/10/21 14:42:38;;;;;;;3.53;3.00;;;23.90;99.40;;;;;;6300124;27;82412;-71
2023/10/21 14:45:42;;;;;;;4.00;3.38;;;24.00;99.40;;;;;;6291418;27;82738;-71
2023/10/21 14:48:46;;;;;;;3.60;3.20;;;24.00;99.50;;;;;;6293571;27;82392;-71
2023/10/21 14:51:48;;;;;;;3.83;3.42;;;24.00;99.50;;;;;;6307545;27;82546;-70
2023/10/21 14:54:50;;;;;;;5.78;3.60;;;23.90;99.50;;;;;;6298204;27;82355;-71
2023/10/21 14:57:52;;;;;;;3.20;2.88;;;24.00;99.50;;;;;;6306364;27;82480;-71
2023/10/21 15:00:54;;;;;;;6.00;3.47;;;24.00;99.50;;;;;;6292077;27;82307;-70
2023/10/21 15:03:57;;;;;;;3.45;3.08;;;24.00;99.40;;;;;;6299237;27;81152;-71
2023/10/21 15:06:59;;;;;;;3.53;3.13;;;24.00;99.30;;;;;;6294569;27;82182;-70
2023/10/21 15:10:07;;;;;;;3.10;2.80;;;24.00;99.40;;;;;;6297468;27;81169;-71
2023/10/21 15:13:10;;;;;;;4.13;3.17;;;24.00;99.40;;;;;;6296241;27;81038;-71
2023/10/21 15:16:12;;;;;;;3.72;2.92;;;24.00;99.40;;;;;;6299859;27;81160;-70
2023/10/21 15:19:15;;;;;;;3.47;3.00;;;24.00;99.40;;;;;;6291790;27;82237;-71
2023/10/21 15:22:17;;;;;;;4.32;3.35;;;24.00;99.40;;;;;;6291478;27;82448;-70
2023/10/21 15:25:19;;;;;;;5.50;3.47;;;23.90;99.60;;;;;;6286534;27;82389;-68
2023/10/21 15:28:21;;;;;;;7.30;3.22;;;23.90;99.90;;;;;;6291822;27;82267;-71
2023/10/21 15:31:25;;;;;;;5.85;3.45;;;24.00;99.90;;;;;;6291421;27;82252;-77
2023/10/21 15:34:28;;;;;;;7.60;3.60;;;24.00;99.90;;;;;;6299714;27;82380;-70
2023/10/21 15:37:31;;;;;;;5.13;3.47;;;24.00;99.90;;;;;;6293196;27;81211;-69
2023/10/21 15:40:33;;;;;;;10.73;3.65;;;24.00;99.90;;;;;;6291097;27;82695;-69
2023/10/21 15:43:35;;;;;;;4.80;3.17;;;24.00;99.90;;;;;;6290587;27;82363;-70
2023/10/21 15:46:37;;;;;;;7.70;3.70;;;24.00;99.90;;;;;;6286784;27;82330;-69
2023/10/21 15:49:41;;;;;;;5.03;3.47;;;24.00;99.90;;;;;;6307636;27;81103;-72
2023/10/21 15:52:45;;;;;;;26.20;4.90;;;24.00;99.90;;;;;;6306165;27;81066;-69
2023/10/21 15:55:48;;;;;;;10.95;3.67;;;24.00;99.90;;;;;;6296272;27;82487;-69
2023/10/21 15:58:52;;;;;;;130.02;88.00;;;24.10;99.90;;;;;;6306811;27;81562;-70
2023/10/21 16:01:56;;;;;;;73.32;38.83;;;24.10;99.90;;;;;;6299527;27;83628;-72
2023/10/21 16:05:00;;;;;;;21.90;12.02;;;24.20;99.90;;;;;;6299886;27;83098;-72
2023/10/21 16:08:03;;;;;;;14.40;7.75;;;24.20;99.90;;;;;;6290837;27;82784;-74
2023/10/21 16:11:10;;;;;;;12.43;6.25;;;24.30;99.90;;;;;;6298399;27;80454;-71
2023/10/21 16:14:12;;;;;;;18.52;6.47;;;24.30;99.90;;;;;;6288132;27;80978;-71
2023/10/21 16:17:15;;;;;;;8.45;5.38;;;24.30;99.90;;;;;;6288239;27;81225;-73
2023/10/21 16:20:19;;;;;;;9.48;5.05;;;24.20;99.90;;;;;;6285648;27;81079;-72
2023/10/21 16:23:23;;;;;;;8.90;5.22;;;24.30;99.90;;;;;;6305687;27;81278;-72